Time;durP1;ratioP1;P1;durP2;ratioP2;P2;SDS_P1;SDS_P2;PMS_P1;PMS_P2;Temp;Humidity;BMP_temperature;BMP_pressure;BME280_temperature;BME280_humidity;BME280_pressure;Samples;Min_cycle;Max_cycle;Signal;HPM_P1;HPM_P2
2021/09/22 00:00:22;;;;;;;11.70;9.38;;;;;;;11.18;97.41;93762.97;5090495;28;20056;-82
2021/09/22 00:02:49;;;;;;;12.15;9.65;;;;;;;11.32;98.88;93768.06;5108081;28;20052;-82
2021/09/22 00:05:18;;;;;;;15.57;11.32;;;;;;;11.17;97.31;93776.81;5110267;28;20059;-83
2021/09/22 00:07:45;;;;;;;13.50;10.43;;;;;;;10.93;97.79;93776.41;5110741;28;20055;-82
2021/09/22 00:10:14;;;;;;;14.27;10.77;;;;;;;10.98;99.41;93767.31;5110607;28;20063;-82
2021/09/22 00:12:41;;;;;;;14.35;11.35;;;;;;;10.74;99.42;93766.91;5110661;28;20055;-82
2021/09/22 00:15:11;;;;;;;15.60;11.63;;;;;;;10.47;100.00;93754.03;5110201;28;20052;-82
2021/09/22 00:17:38;;;;;;;15.10;12.10;;;;;;;10.50;100.00;93757.00;5110208;28;20077;-82
2021/09/22 00:20:06;;;;;;;13.63;12.13;;;;;;;10.34;100.00;93754.75;5110503;28;20051;-82
2021/09/22 00:22:35;;;;;;;16.70;12.45;;;;;;;10.21;100.00;93756.31;5109821;28;20544;-82
2021/09/22 00:25:02;;;;;;;16.13;12.48;;;;;;;10.10;100.00;93756.88;5109960;28;20092;-82
2021/09/22 00:27:28;;;;;;;15.98;12.15;;;;;;;10.07;100.00;93752.91;5110265;28;20044;-82
2021/09/22 00:29:57;;;;;;;14.10;11.80;;;;;;;10.21;100.00;93745.25;5110138;28;20411;-82
2021/09/22 00:32:24;;;;;;;14.60;11.68;;;;;;;10.10;100.00;93744.03;5110184;28;20055;-82
2021/09/22 00:34:51;;;;;;;14.23;12.18;;;;;;;10.05;100.00;93733.56;5109869;28;20061;-82
2021/09/22 00:37:18;;;;;;;15.40;12.25;;;;;;;10.06;100.00;93733.38;5109998;28;20400;-82
2021/09/22 00:39:46;;;;;;;16.00;12.77;;;;;;;10.09;100.00;93738.09;5110006;28;20415;-83
2021/09/22 00:42:14;;;;;;;17.20;12.57;;;;;;;10.10;100.00;93714.00;5109862;28;20399;-82
2021/09/22 00:44:50;;;;;;;17.02;12.52;;;;;;;10.35;100.00;93733.22;5109713;28;20047;-82
2021/09/22 00:47:16;;;;;;;;;;;;;;;10.39;100.00;93734.41;5109938;28;20047;-83
2021/09/22 00:49:43;;;;;;;17.52;12.88;;;;;;;10.39;100.00;93729.28;5109674;28;19931;-82
2021/09/22 00:52:12;;;;;;;15.73;11.95;;;;;;;10.38;100.00;93730.28;5109922;28;20408;-82
2021/09/22 00:54:39;;;;;;;16.13;12.35;;;;;;;10.43;100.00;93721.00;5109545;28;20051;-83
2021/09/22 00:57:08;;;;;;;18.00;13.07;;;;;;;10.37;100.00;93724.34;5109450;28;20434;-82
2021/09/22 00:59:35;;;;;;;16.40;12.45;;;;;;;10.23;100.00;93728.66;5109378;28;20048;-82
2021/09/22 01:02:01;;;;;;;15.57;12.25;;;;;;;10.07;100.00;93718.75;5098019;28;20083;-82
2021/09/22 01:04:29;;;;;;;15.23;11.68;;;;;;;9.89;99.99;93728.56;5089202;28;20048;-81
2021/09/22 01:06:56;;;;;;;17.90;12.73;;;;;;;9.81;100.00;93722.81;5089178;28;20101;-81
2021/09/22 01:09:23;;;;;;;16.42;11.38;;;;;;;9.70;100.00;93717.25;5089080;28;20522;-82
2021/09/22 01:11:50;;;;;;;14.95;11.52;;;;;;;9.69;100.00;93722.56;5089356;28;20079;-80
2021/09/22 01:14:21;;;;;;;15.73;11.38;;;;;;;9.81;100.00;93712.56;5092934;28;20492;-81
2021/09/22 01:17:07;;;;;;;14.48;11.30;;;;;;;9.94;100.00;93706.66;5093445;28;20048;-81
2021/09/22 01:19:34;;;;;;;15.07;11.45;;;;;;;9.96;100.00;93695.22;5093007;28;20059;-82
2021/09/22 01:22:02;;;;;;;13.45;11.02;;;;;;;9.87;100.00;93702.28;5093465;28;20048;-81
2021/09/22 01:24:29;;;;;;;14.45;10.93;;;;;;;9.84;99.92;93694.19;5093017;28;20056;-81
2021/09/22 01:26:56;;;;;;;14.35;11.35;;;;;;;9.72;99.71;93693.97;5093139;28;20052;-80
2021/09/22 01:29:22;;;;;;;13.85;10.15;;;;;;;9.67;98.09;93704.03;5093597;28;20048;-81
2021/09/22 01:31:49;;;;;;;13.05;9.98;;;;;;;9.59;98.44;93699.84;5093433;28;20044;-80
2021/09/22 01:34:17;;;;;;;14.65;10.57;;;;;;;9.51;98.60;93697.44;5092841;28;20500;-81
2021/09/22 01:36:43;;;;;;;12.70;9.90;;;;;;;9.47;98.58;93691.88;5093181;28;20044;-80
2021/09/22 01:39:12;;;;;;;11.13;8.75;;;;;;;9.41;96.84;93695.22;5092874;28;20051;-81
2021/09/22 01:41:38;;;;;;;12.88;9.30;;;;;;;9.42;97.04;93686.53;5092704;28;20405;-81
2021/09/22 01:44:06;;;;;;;10.82;7.97;;;;;;;9.43;94.91;93690.69;5092705;28;20051;-81
2021/09/22 01:46:33;;;;;;;12.32;8.88;;;;;;;9.49;94.81;93690.72;5092886;28;20468;-81
2021/09/22 01:48:59;;;;;;;10.45;8.35;;;;;;;9.57;94.99;93691.53;5092861;28;20083;-82
2021/09/22 01:51:26;;;;;;;10.27;8.13;;;;;;;9.58;93.59;93698.28;5092494;28;20067;-81
2021/09/22 01:53:53;;;;;;;10.20;7.88;;;;;;;9.47;93.48;93682.44;5092729;28;20145;-81
2021/09/22 01:56:22;;;;;;;12.48;8.48;;;;;;;9.67;93.31;93701.47;5092715;28;20052;-81
2021/09/22 01:58:48;;;;;;;10.15;7.75;;;;;;;9.77;93.18;93704.47;5092524;28;20067;-82
2021/09/22 02:01:15;;;;;;;11.73;8.25;;;;;;;9.85;92.19;93704.28;5091692;28;20055;-82
2021/09/22 02:03:43;;;;;;;10.05;8.32;;;;;;;9.74;94.34;93690.25;5092372;28;20056;-82
2021/09/22 02:06:10;;;;;;;10.50;8.07;;;;;;;9.88;91.95;93715.94;5092219;28;20530;-81
2021/09/22 02:08:39;;;;;;;10.95;8.38;;;;;;;9.87;92.98;93710.00;5092281;28;20044;-81
2021/09/22 02:11:07;;;;;;;10.68;8.00;;;;;;;9.75;91.83;93702.09;5092426;28;20048;-81
2021/09/22 02:13:36;;;;;;;11.05;8.15;;;;;;;10.04;92.93;93714.78;5092288;28;20096;-82
2021/09/22 02:16:03;;;;;;;11.50;8.52;;;;;;;9.88;91.80;93698.78;5092181;28;20051;-81
2021/09/22 02:18:29;;;;;;;10.63;8.07;;;;;;;9.94;91.09;93702.31;5092054;28;20059;-81
2021/09/22 02:20:56;;;;;;;10.27;7.68;;;;;;;10.16;93.65;93697.06;5091833;28;20226;-81
2021/09/22 02:23:23;;;;;;;10.77;8.20;;;;;;;10.37;93.48;93697.88;5092159;28;20044;-81
2021/09/22 02:25:50;;;;;;;9.63;7.68;;;;;;;10.47;90.63;93698.31;5091198;28;20495;-81
2021/09/22 02:28:17;;;;;;;11.52;8.00;;;;;;;10.51;89.91;93704.63;5091332;28;20067;-81
2021/09/22 02:30:45;;;;;;;12.23;9.07;;;;;;;10.59;90.92;93705.44;5092145;28;20044;-80
2021/09/22 02:33:12;;;;;;;11.77;8.70;;;;;;;10.43;88.70;93710.75;5092082;28;20059;-80
2021/09/22 02:35:39;;;;;;;9.55;7.32;;;;;;;10.48;91.60;93710.16;5092087;28;20055;-80
2021/09/22 02:38:06;;;;;;;10.18;7.50;;;;;;;10.43;88.88;93709.97;5092018;28;20055;-80
2021/09/22 02:40:33;;;;;;;11.43;8.80;;;;;;;10.25;89.11;93687.38;5091600;28;20105;-80
2021/09/22 02:42:59;;;;;;;10.07;7.95;;;;;;;10.06;89.20;93670.97;5091864;28;20048;-82
2021/09/22 02:45:26;;;;;;;12.57;8.65;;;;;;;10.23;90.09;93702.97;5091853;28;20044;-82
2021/09/22 02:47:55;;;;;;;8.45;7.28;;;;;;;10.22;88.31;93695.47;5091370;28;20048;-82
2021/09/22 02:50:21;;;;;;;10.73;8.38;;;;;;;10.23;88.33;93702.22;5091721;28;20515;-81
2021/09/22 02:52:50;;;;;;;12.02;8.02;;;;;;;10.24;89.47;93703.78;5088483;28;20037;-81
2021/09/22 02:55:17;;;;;;;11.45;8.32;;;;;;;10.19;91.14;93699.25;5080065;28;20568;-81
2021/09/22 02:57:44;;;;;;;9.55;7.28;;;;;;;9.81;88.60;93697.16;5081098;28;20045;-80
2021/09/22 03:00:12;;;;;;;10.45;8.32;;;;;;;9.65;91.45;93677.75;5081877;28;20052;-81
2021/09/22 03:02:39;;;;;;;10.07;8.25;;;;;;;9.92;92.59;93701.75;5079153;28;20052;-80
2021/09/22 03:05:08;;;;;;;11.35;8.52;;;;;;;9.91;91.48;93689.91;5080145;28;20040;-80
2021/09/22 03:07:35;;;;;;;9.70;8.27;;;;;;;9.75;91.05;93670.50;5082337;28;20512;-80
2021/09/22 03:10:02;;;;;;;12.65;8.55;;;;;;;9.88;93.43;93688.50;5081062;28;20059;-80
2021/09/22 03:12:29;;;;;;;12.63;8.00;;;;;;;9.93;90.70;93685.34;5079419;28;20044;-80
2021/09/22 03:14:57;;;;;;;9.23;7.53;;;;;;;9.62;88.13;93692.56;5080167;28;20048;-80
2021/09/22 03:17:23;;;;;;;10.48;8.02;;;;;;;9.53;89.80;93662.16;5082109;28;20070;-81
2021/09/22 03:19:50;;;;;;;10.20;7.82;;;;;;;9.62;89.26;93684.84;5079526;28;20052;-81
2021/09/22 03:22:19;;;;;;;10.15;7.75;;;;;;;9.67;90.39;93679.16;5080146;28;20036;-80
2021/09/22 03:24:46;;;;;;;10.70;7.85;;;;;;;9.59;90.05;93659.59;5081839;28;20048;-81
2021/09/22 03:27:13;;;;;;;10.82;8.50;;;;;;;9.75;90.79;93676.44;5079349;28;20548;-81
2021/09/22 03:29:39;;;;;;;10.52;8.38;;;;;;;9.47;90.54;93663.69;5080395;28;20419;-82
2021/09/22 03:32:07;;;;;;;8.88;7.25;;;;;;;9.66;91.56;93667.31;5081842;28;20051;-81
2021/09/22 03:34:33;;;;;;;10.77;8.45;;;;;;;9.61;90.45;93674.78;5081097;28;20055;-81
2021/09/22 03:37:00;;;;;;;10.70;8.40;;;;;;;9.56;92.17;93680.50;5079035;28;20040;-82
2021/09/22 03:39:28;;;;;;;9.52;7.60;;;;;;;9.40;91.64;93665.44;5079414;28;20052;-82
2021/09/22 03:41:55;;;;;;;11.55;8.35;;;;;;;9.37;92.00;93658.91;5078841;28;20036;-81
2021/09/22 03:44:22;;;;;;;10.10;7.95;;;;;;;9.47;92.09;93656.78;5080252;28;20044;-81
2021/09/22 03:46:49;;;;;;;10.60;8.00;;;;;;;9.39;91.66;93640.78;5082400;28;20044;-81
2021/09/22 03:49:16;;;;;;;12.30;9.00;;;;;;;9.71;93.38;93648.75;5080666;28;20106;-81
2021/09/22 03:51:43;;;;;;;11.77;7.65;;;;;;;9.74;92.46;93656.91;5082408;28;20393;-80
2021/09/22 03:54:10;;;;;;;11.05;8.55;;;;;;;9.86;91.85;93659.66;5080262;28;20094;-81
2021/09/22 03:56:38;;;;;;;10.05;8.27;;;;;;;9.89;90.50;93661.06;5078221;28;20507;-81
2021/09/22 03:59:05;;;;;;;12.65;7.50;;;;;;;9.84;90.89;93656.53;5080356;28;20054;-81
2021/09/22 04:01:31;;;;;;;9.98;7.82;;;;;;;9.64;90.72;93656.47;5078339;28;20044;-80
2021/09/22 04:03:58;;;;;;;11.63;8.10;;;;;;;9.74;91.86;93645.81;5078700;28;20489;-80
2021/09/22 04:06:25;;;;;;;12.85;10.52;;;;;;;9.80;91.41;93649.38;5079723;28;20113;-80
2021/09/22 04:08:52;;;;;;;14.32;11.10;;;;;;;9.86;92.51;93644.28;5078540;28;20044;-80
2021/09/22 04:11:19;;;;;;;12.52;8.98;;;;;;;9.88;92.02;93644.88;5080239;28;20606;-80
2021/09/22 04:13:47;;;;;;;15.52;9.85;;;;;;;9.96;90.92;93645.69;5080564;28;20048;-80
2021/09/22 04:16:14;;;;;;;11.52;9.05;;;;;;;9.93;90.79;93653.75;5080555;28;20044;-80
2021/09/22 04:18:41;;;;;;;10.57;8.52;;;;;;;9.95;90.80;93647.44;5086616;28;20045;-80
2021/09/22 04:21:08;;;;;;;11.63;8.57;;;;;;;9.91;92.57;93624.94;5080711;28;20040;-80
2021/09/22 04:23:35;;;;;;;63.10;38.20;;;;;;;9.93;90.52;93634.03;5080078;28;20059;-80
2021/09/22 04:26:02;;;;;;;34.08;22.13;;;;;;;9.97;93.11;93621.59;5076969;28;20078;-80
2021/09/22 04:28:29;;;;;;;11.57;8.80;;;;;;;9.97;90.95;93634.44;5080306;28;20044;-80
2021/09/22 04:30:57;;;;;;;14.73;10.05;;;;;;;9.96;93.01;93627.72;5078989;28;20400;-80
2021/09/22 04:33:24;;;;;;;10.90;9.15;;;;;;;9.91;90.50;93617.25;5077737;28;20056;-80
2021/09/22 04:35:52;;;;;;;9.43;7.93;;;;;;;9.93;88.82;93630.66;5079856;28;20044;-80
2021/09/22 04:38:19;;;;;;;15.45;10.90;;;;;;;9.93;89.42;93635.78;5078786;28;20127;-80
2021/09/22 04:40:46;;;;;;;15.20;9.80;;;;;;;10.10;92.15;93636.22;5080775;28;20048;-80
2021/09/22 04:43:13;;;;;;;12.65;9.48;;;;;;;10.18;90.45;93630.88;5077556;28;20044;-82
2021/09/22 04:45:40;;;;;;;11.00;9.00;;;;;;;10.33;90.35;93629.94;5080513;28;20059;-81
2021/09/22 04:48:08;;;;;;;9.43;7.55;;;;;;;10.39;88.33;93626.56;5077249;28;20044;-81
2021/09/22 04:50:35;;;;;;;10.20;7.47;;;;;;;10.36;87.29;93624.38;5078765;28;20040;-81
2021/09/22 04:53:02;;;;;;;10.43;8.25;;;;;;;10.35;87.76;93618.47;5079822;28;20048;-80
2021/09/22 04:55:29;;;;;;;12.63;9.18;;;;;;;10.50;89.79;93623.44;5077805;28;20493;-80
2021/09/22 04:57:56;;;;;;;9.80;8.18;;;;;;;10.60;89.09;93617.09;5078456;28;20094;-80
2021/09/22 05:00:23;;;;;;;9.95;8.27;;;;;;;10.50;88.78;93587.47;5079449;28;20052;-82
2021/09/22 05:02:50;;;;;;;11.95;8.48;;;;;;;10.74;88.71;93618.66;5079706;28;20044;-82
2021/09/22 05:05:18;;;;;;;10.27;7.85;;;;;;;10.78;88.40;93614.69;5077275;28;20044;-81
2021/09/22 05:07:45;;;;;;;13.15;9.20;;;;;;;10.82;90.00;93602.25;5080402;28;20044;-81
2021/09/22 05:10:13;;;;;;;10.52;8.75;;;;;;;10.83;87.64;93612.31;5089220;28;20044;-81
2021/09/22 05:12:40;;;;;;;11.05;8.18;;;;;;;10.55;87.50;93604.84;5088994;28;20048;-81
2021/09/22 05:15:08;;;;;;;10.23;8.52;;;;;;;10.52;87.97;93606.03;5089283;28;20056;-83
2021/09/22 05:17:35;;;;;;;10.30;8.32;;;;;;;10.07;88.83;93598.91;5089152;28;20415;-80
2021/09/22 05:20:02;;;;;;;9.82;8.18;;;;;;;10.12;89.18;93606.00;5085419;28;20036;-81
2021/09/22 05:22:30;;;;;;;11.20;8.98;;;;;;;10.11;91.58;93583.91;5089858;28;20040;-81
2021/09/22 05:24:58;;;;;;;11.82;9.02;;;;;;;10.28;90.57;93609.97;5092649;28;20048;-82
2021/09/22 05:27:26;;;;;;;11.30;8.65;;;;;;;10.14;90.20;93593.78;5109544;28;20078;-81
2021/09/22 05:29:54;;;;;;;11.90;8.80;;;;;;;10.11;89.75;93596.72;5104721;28;20074;-79
2021/09/22 05:32:21;;;;;;;10.88;8.77;;;;;;;10.09;91.03;93599.50;5107263;28;20051;-81
2021/09/22 05:34:48;;;;;;;9.73;8.25;;;;;;;9.98;91.92;93598.31;5108846;28;20047;-81
2021/09/22 05:37:14;;;;;;;10.90;8.88;;;;;;;9.62;91.38;93591.72;5104128;28;20063;-81
2021/09/22 05:39:43;;;;;;;10.60;8.50;;;;;;;9.49;91.58;93589.91;5089083;28;20044;-81
2021/09/22 05:42:10;;;;;;;10.35;8.48;;;;;;;9.51;92.17;93589.72;5088798;28;20048;-81
2021/09/22 05:44:37;;;;;;;10.57;8.70;;;;;;;9.73;92.31;93591.16;5088842;28;20071;-81
2021/09/22 05:47:04;;;;;;;10.90;8.77;;;;;;;9.83;93.46;93588.22;5088654;28;20056;-81
2021/09/22 05:49:31;;;;;;;11.05;8.88;;;;;;;9.80;93.41;93585.25;5088997;28;20413;-82
2021/09/22 05:51:58;;;;;;;11.68;8.93;;;;;;;9.82;92.64;93589.19;5088742;28;20048;-80
2021/09/22 05:54:25;;;;;;;10.73;9.18;;;;;;;9.71;93.20;93600.84;5088969;28;20051;-80
2021/09/22 05:56:53;;;;;;;12.45;9.25;;;;;;;9.60;93.58;93597.06;5088556;28;20043;-81
2021/09/22 05:59:20;;;;;;;47.00;31.10;;;;;;;9.85;93.03;93618.81;5089410;28;20063;-80
2021/09/22 06:01:47;;;;;;;10.60;8.65;;;;;;;9.84;92.73;93609.53;5092255;28;20067;-80
2021/09/22 06:04:13;;;;;;;9.80;7.95;;;;;;;9.92;91.40;93606.78;5092563;28;20055;-80
2021/09/22 06:06:40;;;;;;;11.95;9.20;;;;;;;9.86;91.72;93612.72;5092499;28;20056;-81
2021/09/22 06:09:07;;;;;;;9.40;7.97;;;;;;;9.66;92.99;93608.31;5092687;28;20409;-80
2021/09/22 06:11:34;;;;;;;11.63;8.70;;;;;;;9.65;90.39;93605.94;5092524;28;20048;-81
2021/09/22 06:14:02;;;;;;;10.48;8.23;;;;;;;9.69;92.91;93600.25;5099289;28;20496;-80
2021/09/22 06:16:29;;;;;;;12.77;9.90;;;;;;;9.70;91.34;93588.19;5112689;28;20047;-80
2021/09/22 06:18:57;;;;;;;12.20;9.95;;;;;;;9.85;91.77;93585.44;5112705;28;20067;-81
2021/09/22 06:21:24;;;;;;;9.88;8.18;;;;;;;9.62;90.61;93563.50;5112926;28;20052;-80
2021/09/22 06:23:53;;;;;;;13.25;9.95;;;;;;;9.88;91.40;93579.94;5112369;28;20500;-81
2021/09/22 06:26:21;;;;;;;10.43;8.45;;;;;;;9.95;91.61;93573.03;5112616;28;20047;-81
2021/09/22 06:28:48;;;;;;;9.82;8.68;;;;;;;10.14;89.98;93591.22;5100811;28;20047;-81
2021/09/22 06:31:16;;;;;;;10.85;8.65;;;;;;;10.27;90.41;93587.84;5089862;28;20101;-81
2021/09/22 06:33:44;;;;;;;10.35;8.38;;;;;;;9.93;88.42;93581.91;5090912;28;20047;-80
2021/09/22 06:36:10;;;;;;;10.27;7.97;;;;;;;9.72;88.72;93581.88;5091802;28;20048;-81
2021/09/22 06:38:37;;;;;;;10.13;7.97;;;;;;;9.72;88.32;93587.00;5091499;28;20052;-80
2021/09/22 06:41:04;;;;;;;8.60;7.57;;;;;;;9.57;88.74;93583.81;5091783;28;20079;-81
2021/09/22 06:43:31;;;;;;;9.98;8.10;;;;;;;9.65;89.74;93582.84;5091544;28;20488;-81
2021/09/22 06:45:59;;;;;;;10.57;8.32;;;;;;;9.63;88.68;93595.88;5091604;28;20095;-81
2021/09/22 06:48:27;;;;;;;11.10;7.85;;;;;;;8.93;88.98;93499.44;5091567;28;20048;-81
2021/09/22 06:50:54;;;;;;;12.18;8.95;;;;;;;9.63;87.16;93601.03;5091330;28;20043;-81
2021/09/22 06:53:21;;;;;;;9.82;6.93;;;;;;;9.54;89.75;93602.16;5091307;28;20044;-80
2021/09/22 06:55:48;;;;;;;10.52;7.72;;;;;;;9.64;89.06;93605.16;5091534;28;20120;-81
2021/09/22 06:58:15;;;;;;;8.45;6.75;;;;;;;9.56;88.03;93598.44;5091381;28;20479;-81
2021/09/22 07:00:41;;;;;;;12.80;8.38;;;;;;;9.70;88.10;93596.69;5091432;28;20459;-81
2021/09/22 07:03:11;;;;;;;9.35;7.72;;;;;;;9.71;87.45;93605.97;5090749;28;20051;-81
2021/09/22 07:05:40;;;;;;;8.55;6.88;;;;;;;9.72;84.17;93612.66;5091187;28;20098;-80
2021/09/22 07:08:07;;;;;;;9.15;6.78;;;;;;;9.55;85.11;93606.31;5091314;28;20052;-80
2021/09/22 07:10:34;;;;;;;9.10;6.25;;;;;;;9.43;85.42;93608.63;5090783;28;20421;-80
2021/09/22 07:13:01;;;;;;;7.15;6.03;;;;;;;9.38;85.54;93616.09;5091261;28;20054;-80
2021/09/22 07:15:28;;;;;;;8.18;6.15;;;;;;;9.37;84.57;93625.59;5110310;28;20047;-80
2021/09/22 07:17:55;;;;;;;7.55;5.70;;;;;;;9.32;84.29;93626.16;5111012;28;20043;-80
2021/09/22 07:20:22;;;;;;;10.00;7.57;;;;;;;9.50;85.73;93622.28;5111363;28;20054;-80
2021/09/22 07:22:50;;;;;;;10.65;7.40;;;;;;;9.49;85.78;93621.47;5111403;28;20043;-80
2021/09/22 07:25:17;;;;;;;10.88;7.68;;;;;;;9.38;85.02;93596.41;5111096;28;20044;-81
2021/09/22 07:27:44;;;;;;;14.52;10.30;;;;;;;9.64;84.79;93618.00;5111312;28;20392;-82
2021/09/22 07:30:13;;;;;;;15.50;11.88;;;;;;;9.42;84.51;93594.22;5110883;28;20533;-81
2021/09/22 07:32:40;;;;;;;11.82;9.40;;;;;;;9.70;84.12;93618.97;5111153;28;20044;-82
2021/09/22 07:35:08;;;;;;;16.92;7.95;;;;;;;9.58;84.19;93619.53;5111254;28;20054;-81
2021/09/22 07:37:35;;;;;;;9.73;6.43;;;;;;;9.32;84.69;93592.03;5102390;28;20586;-81
2021/09/22 07:40:04;;;;;;;10.85;8.35;;;;;;;9.38;85.03;93573.31;5099552;28;20094;-81
2021/09/22 07:42:31;;;;;;;8.82;6.82;;;;;;;9.56;84.61;93603.56;5107837;28;20096;-81
2021/09/22 07:44:58;;;;;;;9.32;6.82;;;;;;;9.66;83.85;93620.34;5111174;28;20052;-81
2021/09/22 07:47:25;;;;;;;8.73;6.95;;;;;;;9.68;84.11;93615.81;5110846;28;20048;-81
2021/09/22 07:49:52;;;;;;;9.23;7.53;;;;;;;9.84;86.28;93615.47;5110842;28;20116;-82
2021/09/22 07:52:19;;;;;;;8.85;7.30;;;;;;;9.91;86.26;93596.72;5110864;28;20056;-82
2021/09/22 07:54:46;;;;;;;9.68;8.13;;;;;;;10.03;83.70;93621.63;5110462;28;20047;-82
2021/09/22 07:57:15;;;;;;;9.90;7.28;;;;;;;10.09;84.83;93609.00;5110415;28;20052;-82
2021/09/22 07:59:41;;;;;;;10.30;7.82;;;;;;;10.34;86.05;93600.69;5110310;28;20492;-82
2021/09/22 08:02:08;;;;;;;11.07;7.70;;;;;;;10.46;85.02;93595.78;5110717;27;20412;-82
2021/09/22 08:04:35;;;;;;;13.68;8.43;;;;;;;10.82;85.66;93607.38;5110034;28;20051;-81
2021/09/22 08:07:02;;;;;;;9.73;7.47;;;;;;;10.96;84.37;93600.44;5110262;28;20515;-82
2021/09/22 08:09:31;;;;;;;8.73;6.35;;;;;;;11.11;84.06;93594.25;5110318;28;20044;-82
2021/09/22 08:11:57;;;;;;;10.13;7.50;;;;;;;11.26;83.84;93596.56;5109994;28;20044;-82
2021/09/22 08:14:29;;;;;;;8.23;6.30;;;;;;;10.96;79.04;93595.28;5100424;28;20052;-82
2021/09/22 08:16:57;;;;;;;9.77;6.88;;;;;;;11.11;81.72;93589.13;5089616;28;20044;-82
2021/09/22 08:19:24;;;;;;;8.25;6.68;;;;;;;10.92;80.71;93571.00;5089496;28;20172;-81
2021/09/22 08:21:51;;;;;;;7.25;5.95;;;;;;;10.49;80.38;93598.75;5089292;28;20048;-80
2021/09/22 08:24:18;;;;;;;9.68;7.20;;;;;;;10.52;82.78;93589.84;5090098;28;20055;-81
2021/09/22 08:26:45;;;;;;;9.82;6.97;;;;;;;10.40;82.05;93582.72;5089685;28;20412;-79
2021/09/22 08:29:12;;;;;;;9.48;7.10;;;;;;;10.31;81.80;93590.81;5089716;28;20048;-81
2021/09/22 08:31:40;;;;;;;8.75;7.03;;;;;;;10.47;82.49;93605.06;5089849;28;20043;-82
2021/09/22 08:34:07;;;;;;;9.63;6.65;;;;;;;10.36;80.55;93588.44;5089603;28;20492;-81
2021/09/22 08:36:34;;;;;;;9.70;6.75;;;;;;;10.47;80.42;93602.50;5086205;28;20052;-82
2021/09/22 08:39:01;;;;;;;9.40;6.95;;;;;;;10.45;79.59;93597.53;5087576;28;20511;-82
2021/09/22 08:41:28;;;;;;;9.00;7.30;;;;;;;10.60;79.72;93594.75;5088703;28;20048;-81
2021/09/22 08:43:55;;;;;;;8.93;7.53;;;;;;;10.45;80.85;93561.59;5089337;28;20044;-81
2021/09/22 08:46:22;;;;;;;8.32;7.07;;;;;;;10.74;79.74;93569.06;5089566;28;20050;-82
2021/09/22 08:48:50;;;;;;;8.95;7.05;;;;;;;10.83;80.39;93563.50;5089288;28;20052;-82
2021/09/22 08:51:17;;;;;;;10.20;7.10;;;;;;;10.40;79.50;93599.88;5089100;28;20056;-80
2021/09/22 08:53:44;;;;;;;8.23;6.63;;;;;;;10.44;81.40;93572.84;5089522;28;20048;-81
2021/09/22 08:56:12;;;;;;;8.90;7.13;;;;;;;10.57;79.35;93559.22;5089398;28;20055;-82
2021/09/22 08:58:40;;;;;;;9.25;7.68;;;;;;;10.83;80.63;93576.34;5089360;28;20088;-82
2021/09/22 09:01:15;;;;;;;9.77;7.68;;;;;;;10.76;80.48;93564.50;5092813;28;20047;-83
2021/09/22 09:03:44;;;;;;;9.35;7.55;;;;;;;10.98;79.30;93564.25;5088923;28;20048;-82
2021/09/22 09:06:25;;;;;;;11.07;7.90;;;;;;;10.72;79.89;93563.31;5089259;28;20071;-80
2021/09/22 09:08:54;;;;;;;8.30;7.32;;;;;;;10.52;77.26;93579.56;5089320;28;20044;-82
2021/09/22 09:11:28;;;;;;;10.45;8.02;;;;;;;10.61;77.55;93570.66;5089515;28;20059;-80
2021/09/22 09:13:57;;;;;;;10.35;7.78;;;;;;;10.60;77.43;93548.53;5085460;28;20516;-84
2021/09/22 09:16:25;;;;;;;8.80;7.45;;;;;;;10.83;77.37;93558.34;5079200;28;20073;-83
2021/09/22 09:18:55;;;;;;;9.20;7.50;;;;;;;10.93;76.96;93552.78;5076892;28;20508;-84
2021/09/22 09:21:26;;;;;;;9.32;7.25;;;;;;;11.04;77.21;93545.44;5082986;28;20056;-83
2021/09/22 09:23:56;;;;;;;11.00;7.85;;;;;;;11.28;75.37;93559.38;5080766;28;20056;-83
2021/09/22 09:26:25;;;;;;;9.18;7.18;;;;;;;11.46;73.03;93555.34;5080174;28;20181;-83
2021/09/22 09:28:55;;;;;;;10.07;6.90;;;;;;;11.41;74.69;93522.53;5080824;28;20040;-84
2021/09/22 09:31:23;;;;;;;7.82;6.60;;;;;;;11.63;73.08;93556.41;5089207;28;20051;-84
2021/09/22 09:33:52;;;;;;;9.88;7.35;;;;;;;11.23;73.83;93513.72;5090792;28;20070;-83
2021/09/22 09:36:24;;;;;;;10.45;8.43;;;;;;;11.62;75.05;93560.00;5093001;28;20151;-83
2021/09/22 09:38:52;;;;;;;9.45;7.30;;;;;;;11.63;74.35;93548.69;5093297;28;20109;-84
2021/09/22 09:41:24;;;;;;;10.00;8.13;;;;;;;11.32;74.02;93542.56;5097797;28;20050;-83
2021/09/22 09:43:51;;;;;;;8.10;6.78;;;;;;;10.81;73.40;93550.06;5093730;28;21116;-81
2021/09/22 09:46:22;;;;;;;9.50;7.65;;;;;;;10.94;76.26;93545.88;5092830;28;20052;-82
2021/09/22 09:49:01;;;;;;;8.73;7.13;;;;;;;11.19;75.54;93545.16;5092945;28;20069;-84
2021/09/22 09:51:38;;;;;;;9.18;6.97;;;;;;;11.28;74.38;93520.81;5092549;28;20048;-83
2021/09/22 09:54:11;;;;;;;9.38;7.00;;;;;;;11.50;71.87;93543.66;5092466;28;20056;-81
2021/09/22 09:56:38;;;;;;;13.02;9.43;;;;;;;11.58;74.41;93545.19;5092817;28;20055;-82
2021/09/22 09:59:05;;;;;;;8.88;6.93;;;;;;;11.66;75.50;93533.84;5092487;28;20424;-82
2021/09/22 10:01:41;;;;;;;8.57;6.97;;;;;;;11.59;73.81;93518.44;5088985;28;22044;-83
2021/09/22 10:04:08;;;;;;;9.60;7.28;;;;;;;11.76;73.15;93540.09;5090488;28;20048;-82
2021/09/22 10:06:37;;;;;;;10.15;7.25;;;;;;;11.05;73.92;93541.88;5091136;28;20500;-81
2021/09/22 10:09:05;;;;;;;8.73;7.07;;;;;;;10.80;75.51;93542.56;5092468;28;20052;-81
2021/09/22 10:11:33;;;;;;;9.82;6.63;;;;;;;11.04;75.95;93553.16;5092348;28;20067;-80
2021/09/22 10:14:01;;;;;;;9.30;6.97;;;;;;;10.61;75.63;93539.84;5099219;28;20071;-79
2021/09/22 10:16:29;;;;;;;9.23;7.32;;;;;;;10.65;77.61;93541.00;5112381;28;20051;-81
2021/09/22 10:18:57;;;;;;;9.77;7.38;;;;;;;10.75;78.26;93550.88;5112480;28;20055;-82
2021/09/22 10:21:33;;;;;;;10.82;8.15;;;;;;;10.35;77.08;93541.44;5112539;28;20047;-82
2021/09/22 10:24:03;;;;;;;8.98;7.28;;;;;;;10.45;78.16;93522.28;5112898;28;20051;-82
2021/09/22 10:26:33;;;;;;;8.52;6.55;;;;;;;10.46;76.79;93552.91;5111957;28;20058;-81
2021/09/22 10:29:00;;;;;;;10.15;8.02;;;;;;;10.28;77.38;93551.69;5112205;28;20051;-82
2021/09/22 10:31:37;;;;;;;10.15;8.32;;;;;;;10.09;78.36;93527.63;5097825;28;20050;-81
2021/09/22 10:34:05;;;;;;;11.35;7.68;;;;;;;10.16;78.45;93537.91;5112416;28;20047;-80
2021/09/22 10:36:38;;;;;;;8.68;6.72;;;;;;;9.96;78.70;93533.53;5111991;28;20052;-81
2021/09/22 10:39:08;;;;;;;10.00;7.45;;;;;;;9.83;80.33;93531.78;5112508;28;20113;-81
2021/09/22 10:41:45;;;;;;;12.38;7.90;;;;;;;9.93;81.68;93531.38;5112037;28;20058;-81
2021/09/22 10:44:14;;;;;;;9.05;7.18;;;;;;;9.95;80.91;93526.84;5112298;28;20052;-81
2021/09/22 10:46:40;;;;;;;7.68;6.57;;;;;;;10.05;81.55;93530.78;5111452;28;20059;-81
2021/09/22 10:49:17;;;;;;;8.80;6.68;;;;;;;9.91;82.37;93530.81;5111123;28;20070;-80
2021/09/22 10:51:49;;;;;;;7.40;6.28;;;;;;;9.89;82.01;93510.47;5112133;28;20056;-80
2021/09/22 10:54:20;;;;;;;9.05;6.38;;;;;;;10.07;82.38;93534.75;5111713;28;20504;-81
2021/09/22 10:56:58;;;;;;;9.43;6.72;;;;;;;10.19;82.49;93521.31;5111571;28;20044;-81
2021/09/22 10:59:38;;;;;;;11.10;8.13;;;;;;;10.26;81.92;93532.34;5111483;28;20549;-82
2021/09/22 11:02:07;;;;;;;9.18;6.22;;;;;;;10.36;80.69;93524.22;5111492;28;20079;-82
2021/09/22 11:04:53;;;;;;;10.27;7.47;;;;;;;10.64;81.06;93536.09;5111633;28;20059;-81
2021/09/22 11:07:21;;;;;;;7.97;6.22;;;;;;;10.21;78.50;93471.34;5111237;28;20051;-82
2021/09/22 11:09:50;;;;;;;9.15;7.03;;;;;;;10.71;79.63;93536.06;5111416;28;20496;-82
2021/09/22 11:12:17;;;;;;;9.70;8.00;;;;;;;10.66;78.57;93527.16;5111900;28;20411;-81
2021/09/22 11:14:50;;;;;;;8.40;6.97;;;;;;;10.76;79.37;93529.31;5098580;28;20081;-81
2021/09/22 11:17:20;;;;;;;9.68;6.65;;;;;;;10.64;78.79;93531.72;5091288;28;20044;-80
2021/09/22 11:19:49;;;;;;;8.52;6.78;;;;;;;10.73;80.24;93521.25;5091144;28;20047;-80
2021/09/22 11:22:18;;;;;;;8.30;6.22;;;;;;;10.94;80.10;93518.38;5087636;28;20047;-80
2021/09/22 11:24:45;;;;;;;8.40;5.80;;;;;;;10.88;77.58;93515.84;5090856;28;20056;-81
2021/09/22 11:27:16;;;;;;;9.55;6.10;;;;;;;10.93;79.62;93491.09;5090987;28;20052;-81
2021/09/22 11:29:46;;;;;;;10.73;6.97;;;;;;;11.25;80.49;93508.34;5090705;28;20044;-81
2021/09/22 11:32:31;;;;;;;9.55;6.50;;;;;;;11.24;78.75;93506.78;5090888;28;20564;-80